Time;durP1;ratioP1;P1;durP2;ratioP2;P2;SDS_P1;SDS_P2;PMS_P1;PMS_P2;Temp;Humidity;BMP_temperature;BMP_pressure;BME280_temperature;BME280_humidity;BME280_pressure;Samples;Min_cycle;Max_cycle;Signal;HPM_P1;HPM_P2
2022/04/13 00:00:38;;;;;;;8.27;3.20;;;;;;;5.91;51.28;94136.13;5123770;28;20019;-74
2022/04/13 00:03:03;;;;;;;12.10;3.67;;;;;;;5.88;51.35;94147.25;5123869;28;20035;-74
2022/04/13 00:05:29;;;;;;;9.65;4.32;;;;;;;5.88;51.04;94150.69;5123949;28;20021;-74
2022/04/13 00:07:55;;;;;;;13.63;5.15;;;;;;;5.87;51.03;94146.47;5123725;28;20019;-74
2022/04/13 00:10:21;;;;;;;9.85;4.93;;;;;;;5.91;50.95;94144.06;5123682;28;20023;-74
2022/04/13 00:12:46;;;;;;;10.68;4.97;;;;;;;5.89;51.01;94148.84;5123508;28;20069;-74
2022/04/13 00:15:12;;;;;;;12.88;4.32;;;;;;;5.88;51.16;94141.97;5123574;28;20078;-74
2022/04/13 00:17:37;;;;;;;11.43;4.55;;;;;;;5.89;51.40;94139.06;5123646;28;20026;-74
2022/04/13 00:20:06;;;;;;;8.48;4.28;;;;;;;5.91;51.26;94128.19;5123367;28;20026;-74
2022/04/13 00:22:32;;;;;;;7.88;3.55;;;;;;;5.93;51.52;94120.78;5123644;28;20072;-73
2022/04/13 00:24:58;;;;;;;11.15;4.18;;;;;;;5.90;51.43;94124.75;5123454;28;20020;-73
2022/04/13 00:27:23;;;;;;;9.48;4.07;;;;;;;5.87;51.75;94146.47;5123314;28;20019;-73
2022/04/13 00:29:49;;;;;;;6.78;3.60;;;;;;;5.88;52.03;94137.47;5123211;28;20041;-74
2022/04/13 00:32:14;;;;;;;12.52;4.20;;;;;;;5.87;52.33;94135.09;5123343;28;20020;-74
2022/04/13 00:34:40;;;;;;;10.50;4.05;;;;;;;5.85;52.67;94137.25;5123584;28;20039;-74
2022/04/13 00:37:06;;;;;;;10.00;4.15;;;;;;;5.79;52.92;94139.91;5123171;28;20024;-74
2022/04/13 00:39:32;;;;;;;10.75;4.32;;;;;;;5.70;52.94;94135.47;5122828;28;20030;-74
2022/04/13 00:41:59;;;;;;;11.70;4.50;;;;;;;5.64;53.49;94137.38;5123273;28;20031;-74
2022/04/13 00:44:29;;;;;;;7.28;3.70;;;;;;;5.58;53.67;94133.97;5123117;28;20024;-74
2022/04/13 00:46:55;;;;;;;13.07;4.05;;;;;;;5.54;53.71;94140.09;5123090;28;20322;-74
2022/04/13 00:49:22;;;;;;;8.55;3.53;;;;;;;5.51;54.01;94138.78;5123206;28;20016;-74
2022/04/13 00:51:48;;;;;;;9.10;3.90;;;;;;;5.46;54.12;94135.38;5123146;28;20240;-73
2022/04/13 00:54:17;;;;;;;8.65;4.22;;;;;;;5.44;53.84;94143.59;5123054;28;20031;-73
2022/04/13 00:56:45;;;;;;;10.30;5.00;;;;;;;5.39;52.93;94136.47;5123197;28;20218;-74
2022/04/13 00:59:13;;;;;;;6.82;4.10;;;;;;;5.37;53.20;94128.03;5123166;28;20094;-73
2022/04/13 01:01:49;;;;;;;11.98;4.85;;;;;;;5.37;53.98;94137.78;5123138;28;20084;-74
2022/04/13 01:04:15;;;;;;;10.93;5.70;;;;;;;5.35;54.66;94150.50;5123019;28;20047;-74
2022/04/13 01:06:42;;;;;;;15.60;5.57;;;;;;;5.33;54.37;94153.44;5123194;28;20034;-74
2022/04/13 01:09:08;;;;;;;21.00;5.13;;;;;;;5.32;54.57;94143.91;5122975;28;20313;-73
2022/04/13 01:11:34;;;;;;;12.02;5.22;;;;;;;5.31;54.48;94149.47;5122902;28;20039;-74
2022/04/13 01:13:59;;;;;;;9.98;4.10;;;;;;;5.20;54.61;94144.22;5122899;28;20032;-74
2022/04/13 01:16:26;;;;;;;13.82;4.38;;;;;;;5.15;55.00;94141.63;5122948;28;20065;-74
2022/04/13 01:18:52;;;;;;;9.88;3.75;;;;;;;5.19;55.22;94147.13;5122953;28;20047;-73
2022/04/13 01:21:20;;;;;;;6.25;3.75;;;;;;;5.17;55.02;94144.78;5122802;28;20024;-73
2022/04/13 01:23:50;;;;;;;10.98;4.55;;;;;;;5.14;55.14;94140.03;5123058;28;20008;-73
2022/04/13 01:26:16;;;;;;;10.05;4.68;;;;;;;5.07;55.21;94136.91;5123016;28;20023;-74
2022/04/13 01:28:42;;;;;;;13.75;4.40;;;;;;;5.06;55.29;94145.09;5138831;28;20019;-73
2022/04/13 01:31:07;;;;;;;12.32;4.57;;;;;;;5.02;55.21;94142.19;5122701;28;20249;-74
2022/04/13 01:33:34;;;;;;;9.90;4.57;;;;;;;4.94;55.85;94140.91;5122417;28;20076;-74
2022/04/13 01:36:02;;;;;;;9.50;4.18;;;;;;;4.94;56.16;94146.19;5122808;28;20053;-75
2022/04/13 01:38:29;;;;;;;12.15;4.40;;;;;;;4.84;56.46;94154.16;5122741;28;20023;-75
2022/04/13 01:40:58;;;;;;;8.98;4.45;;;;;;;4.80;56.83;94155.75;5122872;28;20065;-75
2022/04/13 01:43:24;;;;;;;16.40;4.78;;;;;;;4.80;56.89;94147.81;5122789;28;20023;-75
2022/04/13 01:45:51;;;;;;;11.27;5.50;;;;;;;4.75;56.74;94142.56;5122606;28;20020;-75
2022/04/13 01:48:18;;;;;;;12.15;5.22;;;;;;;4.77;56.42;94145.72;5122843;28;20019;-74
2022/04/13 01:50:44;;;;;;;11.55;5.15;;;;;;;4.75;56.72;94147.84;5123612;28;20019;-75
2022/04/13 01:53:09;;;;;;;12.13;5.63;;;;;;;4.70;57.08;94135.47;5126610;28;20039;-75
2022/04/13 01:55:35;;;;;;;14.77;5.38;;;;;;;4.68;57.16;94136.78;5126407;28;20381;-75
2022/04/13 01:58:00;;;;;;;12.52;5.13;;;;;;;4.65;57.09;94147.88;5126577;28;20065;-75
2022/04/13 02:00:26;;;;;;;13.38;5.60;;;;;;;4.59;57.58;94147.88;5126432;28;20026;-75
2022/04/13 02:02:53;;;;;;;12.82;5.07;;;;;;;4.58;57.84;94135.75;5126395;28;20016;-75
2022/04/13 02:05:19;;;;;;;15.07;5.95;;;;;;;4.55;57.81;94143.41;5126150;28;20203;-75
2022/04/13 02:07:45;;;;;;;12.48;5.85;;;;;;;4.51;58.01;94137.09;5108195;28;20077;-75
2022/04/13 02:10:10;;;;;;;14.45;6.05;;;;;;;4.51;58.17;94143.16;5126197;28;20020;-74
2022/04/13 02:12:37;;;;;;;11.90;5.45;;;;;;;4.40;58.17;94142.38;5126013;28;20034;-76
2022/04/13 02:15:04;;;;;;;14.77;5.63;;;;;;;4.34;58.49;94130.25;5125893;28;20035;-75
2022/04/13 02:17:30;;;;;;;11.05;6.15;;;;;;;4.34;58.74;94137.41;5126073;28;20031;-75
2022/04/13 02:19:56;;;;;;;12.45;5.95;;;;;;;4.32;58.48;94124.47;5125971;28;20030;-76
2022/04/13 02:22:21;;;;;;;16.52;5.35;;;;;;;4.30;58.47;94125.78;5126055;28;20024;-75
2022/04/13 02:24:46;;;;;;;13.30;5.45;;;;;;;4.28;58.32;94130.53;5125966;28;20225;-75
2022/04/13 02:27:12;;;;;;;11.20;4.72;;;;;;;4.29;58.39;94130.25;5126035;28;20026;-75
2022/04/13 02:29:38;;;;;;;13.35;6.30;;;;;;;4.28;58.36;94136.59;5125754;28;20046;-75
2022/04/13 02:32:05;;;;;;;12.25;6.00;;;;;;;4.29;58.11;94134.75;5125680;28;20016;-75
2022/04/13 02:34:30;;;;;;;14.07;6.40;;;;;;;4.29;58.25;94134.75;5125578;28;20041;-73
2022/04/13 02:36:56;;;;;;;11.63;6.13;;;;;;;4.23;58.17;94136.59;5125583;28;20218;-74
2022/04/13 02:39:22;;;;;;;12.63;6.55;;;;;;;4.23;58.56;94128.69;5125379;28;20229;-74
2022/04/13 02:41:48;;;;;;;12.88;6.30;;;;;;;4.21;58.34;94136.06;5125488;28;20095;-73
2022/04/13 02:44:13;;;;;;;14.50;5.75;;;;;;;4.20;58.36;94135.28;5125454;28;20015;-73
2022/04/13 02:46:39;;;;;;;13.40;6.45;;;;;;;4.19;58.68;94123.16;5125404;28;20015;-73
2022/04/13 02:49:05;;;;;;;11.52;5.57;;;;;;;4.16;58.63;94131.59;5107152;28;20027;-73
2022/04/13 02:51:31;;;;;;;12.05;5.65;;;;;;;4.13;58.83;94129.50;5107194;28;20076;-73
2022/04/13 02:53:56;;;;;;;10.90;5.28;;;;;;;4.12;58.67;94120.00;5125114;28;20030;-74
2022/04/13 02:56:22;;;;;;;10.90;4.65;;;;;;;4.11;58.14;94123.72;5125064;28;20422;-73
2022/04/13 02:58:47;;;;;;;9.82;4.93;;;;;;;4.10;58.08;94126.59;5125341;28;20206;-73
2022/04/13 03:01:13;;;;;;;13.52;5.65;;;;;;;4.14;58.06;94125.03;5125220;28;20034;-74
2022/04/13 03:03:38;;;;;;;9.27;5.18;;;;;;;4.14;58.08;94125.03;5124915;28;20214;-73
2022/04/13 03:06:04;;;;;;;8.60;4.60;;;;;;;4.16;57.74;94128.97;5124782;28;20019;-74
2022/04/13 03:08:30;;;;;;;8.40;4.78;;;;;;;4.13;57.96;94134.78;5124876;28;20019;-73
2022/04/13 03:10:55;;;;;;;6.78;4.30;;;;;;;4.15;57.98;94134.50;5124925;28;20115;-74
2022/04/13 03:13:21;;;;;;;9.10;4.10;;;;;;;4.15;58.02;94142.41;5124812;28;20027;-74
2022/04/13 03:15:46;;;;;;;9.05;4.07;;;;;;;4.12;58.20;94150.88;5124586;28;20314;-73
2022/04/13 03:18:12;;;;;;;7.50;4.53;;;;;;;4.06;58.36;94150.06;5124798;28;20019;-73
2022/04/13 03:20:37;;;;;;;9.02;4.60;;;;;;;4.01;58.27;94145.59;5124607;28;20090;-75
2022/04/13 03:23:03;;;;;;;10.02;4.57;;;;;;;3.96;58.51;94147.44;5124932;28;20068;-76
2022/04/13 03:25:28;;;;;;;12.70;5.05;;;;;;;3.95;58.57;94145.88;5124607;28;20016;-75
2022/04/13 03:27:54;;;;;;;8.73;4.72;;;;;;;3.92;58.80;94147.16;5124753;28;20024;-75
2022/04/13 03:30:22;;;;;;;11.55;5.60;;;;;;;3.90;58.84;94145.88;5124624;28;20032;-75
2022/04/13 03:32:48;;;;;;;12.73;5.10;;;;;;;3.92;58.75;94146.38;5124576;28;20026;-74
2022/04/13 03:35:15;;;;;;;12.43;5.38;;;;;;;3.95;58.65;94136.13;5106482;28;20044;-75
2022/04/13 03:37:40;;;;;;;10.18;5.65;;;;;;;3.95;58.71;94144.03;5124597;28;20084;-74
2022/04/13 03:40:08;;;;;;;10.20;4.78;;;;;;;3.95;58.79;94140.59;5124189;28;20031;-75
2022/04/13 03:42:35;;;;;;;7.72;4.90;;;;;;;3.91;58.96;94140.34;5124313;28;20262;-75
2022/04/13 03:45:05;;;;;;;10.75;5.07;;;;;;;3.87;59.02;94143.75;5124365;28;20194;-75
2022/04/13 03:47:30;;;;;;;10.68;4.95;;;;;;;3.87;59.04;94154.28;5123998;28;20244;-75
2022/04/13 03:49:56;;;;;;;9.43;5.50;;;;;;;3.84;59.15;94152.97;5124095;28;20061;-75
2022/04/13 03:52:22;;;;;;;13.13;5.43;;;;;;;3.90;59.31;94159.06;5124073;28;20038;-75
2022/04/13 03:54:47;;;;;;;14.20;6.07;;;;;;;3.93;58.91;94148.78;5124119;28;20019;-75
2022/04/13 03:57:13;;;;;;;10.15;4.70;;;;;;;3.92;59.10;94163.00;5124082;28;20039;-75
2022/04/13 03:59:38;;;;;;;12.45;4.90;;;;;;;3.92;59.31;94156.94;5123843;28;20023;-75
2022/04/13 04:02:04;;;;;;;7.40;5.22;;;;;;;3.92;59.16;94160.38;5123992;28;20016;-75
2022/04/13 04:04:29;;;;;;;13.93;5.00;;;;;;;3.95;59.31;94151.94;5123944;28;20217;-75
2022/04/13 04:06:55;;;;;;;11.70;6.22;;;;;;;3.95;59.28;94153.78;5123874;28;20019;-75
2022/04/13 04:09:20;;;;;;;12.00;5.70;;;;;;;3.95;59.41;94159.06;5123632;28;20169;-75
2022/04/13 04:11:46;;;;;;;13.55;5.15;;;;;;;3.96;59.34;94165.91;5123702;28;20135;-75
2022/04/13 04:14:11;;;;;;;11.77;6.47;;;;;;;3.99;59.34;94173.31;5123318;28;20080;-75
2022/04/13 04:16:36;;;;;;;18.60;6.93;;;;;;;4.03;59.54;94174.38;5123927;28;20050;-75
2022/04/13 04:19:02;;;;;;;21.63;7.38;;;;;;;4.05;59.36;94182.00;5123572;28;20317;-75
2022/04/13 04:21:27;;;;;;;25.33;7.10;;;;;;;4.13;59.57;94187.56;5123581;28;20057;-76
2022/04/13 04:23:53;;;;;;;21.67;9.52;;;;;;;4.19;59.05;94194.41;5123411;28;20087;-77
2022/04/13 04:26:18;;;;;;;30.38;8.50;;;;;;;4.26;58.38;94202.06;5123409;28;20047;-75
2022/04/13 04:28:44;;;;;;;20.15;6.95;;;;;;;4.27;59.10;94205.47;5123249;28;20024;-74
2022/04/13 04:31:09;;;;;;;19.65;7.50;;;;;;;4.23;59.38;94197.28;5123313;28;20027;-74
2022/04/13 04:33:35;;;;;;;26.75;9.70;;;;;;;4.29;59.44;94203.34;5122848;28;20024;-75
2022/04/13 04:36:00;;;;;;;16.73;7.25;;;;;;;4.38;59.10;94207.06;5123144;28;20324;-74
2022/04/13 04:38:30;;;;;;;11.40;6.75;;;;;;;4.46;58.44;94211.81;5123104;28;20023;-74
2022/04/13 04:40:56;;;;;;;15.00;6.10;;;;;;;4.51;57.96;94203.88;5123050;28;20023;-75
2022/04/13 04:43:21;;;;;;;12.52;6.25;;;;;;;4.59;57.15;94215.75;5123037;28;20081;-76
2022/04/13 04:45:47;;;;;;;15.00;6.53;;;;;;;4.65;56.96;94221.81;5123527;28;20022;-75
2022/04/13 04:48:12;;;;;;;15.40;6.85;;;;;;;4.71;56.79;94221.53;5123375;28;20024;-75
2022/04/13 04:50:38;;;;;;;15.25;7.70;;;;;;;4.80;56.82;94234.97;5123230;28;20019;-76
2022/04/13 04:53:03;;;;;;;24.38;7.22;;;;;;;4.90;56.52;94234.94;5123188;28;20027;-75
2022/04/13 04:55:29;;;;;;;21.25;7.45;;;;;;;4.97;55.95;94229.41;5123115;28;20020;-75
2022/04/13 04:57:54;;;;;;;22.60;7.55;;;;;;;4.99;56.04;94237.84;5123138;28;20326;-76
2022/04/13 05:00:21;;;;;;;21.83;7.47;;;;;;;5.00;56.23;94245.50;5123033;28;20402;-74
2022/04/13 05:02:48;;;;;;;23.27;8.13;;;;;;;5.03;56.25;94242.31;5123165;28;20099;-74
2022/04/13 05:05:14;;;;;;;13.05;6.72;;;;;;;5.05;56.08;94243.91;5122928;28;20083;-74
2022/04/13 05:07:40;;;;;;;23.23;7.30;;;;;;;5.06;55.19;94242.84;5123003;28;20377;-75
2022/04/13 05:10:06;;;;;;;15.18;7.30;;;;;;;5.03;54.67;94250.25;5122917;28;20031;-75
2022/04/13 05:12:50;;;;;;;11.57;7.15;;;;;;;5.12;54.94;94257.63;5123049;28;20103;-75
2022/04/13 05:15:15;;;;;;;15.43;7.13;;;;;;;5.19;54.78;94258.13;5122983;28;20329;-75
2022/04/13 05:17:41;;;;;;;19.08;7.53;;;;;;;5.28;55.22;94261.81;5123256;28;20024;-75
2022/04/13 05:20:08;;;;;;;14.95;6.72;;;;;;;5.31;54.31;94256.00;5122729;28;20042;-72
2022/04/13 05:22:34;;;;;;;12.95;6.85;;;;;;;5.35;54.16;94262.31;5123013;28;20023;-75
2022/04/13 05:25:08;;;;;;;16.77;7.53;;;;;;;5.37;54.63;94268.13;5123650;28;20251;-74
2022/04/13 05:27:34;;;;;;;28.85;9.52;;;;;;;5.40;54.21;94264.94;5126645;28;20094;-74
2022/04/13 05:30:00;;;;;;;15.43;7.75;;;;;;;5.43;54.48;94260.94;5126822;28;20019;-75
2022/04/13 05:32:25;;;;;;;10.13;5.90;;;;;;;5.54;54.18;94253.78;5126903;28;20068;-73
2022/04/13 05:35:01;;;;;;;17.05;5.97;;;;;;;5.67;53.93;94255.81;5126041;28;20329;-72
2022/04/13 05:37:27;;;;;;;12.38;5.57;;;;;;;5.77;53.13;94253.13;5126301;28;20026;-72
2022/04/13 05:39:53;;;;;;;10.63;6.15;;;;;;;5.90;52.95;94253.59;5126249;28;20044;-72
2022/04/13 05:42:25;;;;;;;12.75;6.65;;;;;;;6.01;52.59;94257.81;5126209;28;20043;-74
2022/04/13 05:44:51;;;;;;;18.80;6.88;;;;;;;6.09;52.67;94259.09;5126529;28;20012;-73
2022/04/13 05:47:17;;;;;;;16.35;7.35;;;;;;;6.09;52.86;94259.88;5126289;28;20039;-74
2022/04/13 05:49:43;;;;;;;18.17;7.15;;;;;;;6.15;52.82;94252.69;5126330;28;20249;-74
2022/04/13 05:52:08;;;;;;;13.30;6.95;;;;;;;6.25;52.86;94251.81;5126617;28;20020;-74
2022/04/13 05:54:34;;;;;;;18.33;7.85;;;;;;;6.35;53.16;94254.38;5126320;28;20375;-74
2022/04/13 05:57:02;;;;;;;27.33;6.85;;;;;;;6.43;52.89;94259.09;5126163;28;20027;-74
2022/04/13 05:59:28;;;;;;;19.63;7.60;;;;;;;6.53;52.03;94252.94;5126213;28;20027;-73
2022/04/13 06:01:54;;;;;;;13.32;6.93;;;;;;;6.61;51.51;94254.97;5126496;28;20031;-74
2022/04/13 06:04:19;;;;;;;17.63;6.20;;;;;;;6.68;51.49;94249.38;5126369;28;20155;-74
2022/04/13 06:06:45;;;;;;;12.02;6.60;;;;;;;6.77;51.28;94253.00;5126279;28;20321;-74
2022/04/13 06:09:10;;;;;;;15.40;6.40;;;;;;;6.87;50.87;94258.19;5126030;28;20019;-74
2022/04/13 06:11:36;;;;;;;19.88;7.25;;;;;;;6.92;50.57;94255.50;5125973;28;20372;-74
2022/04/13 06:14:01;;;;;;;13.57;6.35;;;;;;;7.01;50.55;94266.28;5125934;28;20094;-75
2022/04/13 06:16:27;;;;;;;19.58;6.38;;;;;;;7.05;51.34;94259.34;5125737;28;20027;-75
2022/04/13 06:18:52;;;;;;;21.77;6.78;;;;;;;7.10;50.75;94258.50;5125916;28;20308;-74
2022/04/13 06:21:17;;;;;;;19.52;6.63;;;;;;;7.13;50.32;94264.03;5125890;28;20047;-74
2022/04/13 06:24:17;;;;;;;11.07;6.72;;;;;;;7.23;48.93;94269.22;5125751;28;20069;-73
2022/04/13 06:26:42;;;;;;;14.70;6.18;;;;;;;7.28;47.98;94268.38;5124799;28;20024;-73
2022/04/13 06:29:08;;;;;;;9.98;5.35;;;;;;;7.30;47.64;94266.22;5125531;28;20047;-73
2022/04/13 06:31:34;;;;;;;14.88;6.97;;;;;;;7.37;47.51;94272.00;5125664;28;20355;-74
2022/04/13 06:34:00;;;;;;;15.60;5.90;;;;;;;7.41;46.78;94267.72;5125404;28;20043;-73
2022/04/13 06:36:25;;;;;;;11.30;4.95;;;;;;;7.39;46.79;94271.72;5124667;28;20023;-73
2022/04/13 06:38:51;;;;;;;18.17;4.78;;;;;;;7.47;46.80;94259.69;5125527;28;20031;-74
2022/04/13 06:41:16;;;;;;;9.75;4.97;;;;;;;7.59;45.72;94270.69;5125684;28;20042;-73
2022/04/13 06:43:42;;;;;;;15.15;5.10;;;;;;;7.67;45.75;94264.75;5125468;28;20322;-74
2022/04/13 06:46:08;;;;;;;14.82;5.80;;;;;;;7.73;46.34;94268.91;5125341;28;20023;-74
2022/04/13 06:48:34;;;;;;;13.00;5.38;;;;;;;7.83;45.41;94268.78;5125330;28;20030;-74
2022/04/13 06:51:00;;;;;;;14.43;5.20;;;;;;;7.90;45.88;94270.31;5125180;28;20278;-74
2022/04/13 06:53:26;;;;;;;13.13;5.80;;;;;;;8.02;45.77;94268.03;5125338;28;20027;-74
2022/04/13 06:55:51;;;;;;;17.83;6.13;;;;;;;8.06;45.29;94266.38;5125121;28;20076;-74
2022/04/13 06:58:18;;;;;;;17.00;6.35;;;;;;;8.16;45.54;94268.91;5124774;28;20230;-74
2022/04/13 07:00:44;;;;;;;10.77;5.13;;;;;;;8.26;45.28;94264.50;5125254;28;20076;-73
2022/04/13 07:03:10;;;;;;;21.50;5.55;;;;;;;8.32;44.90;94273.97;5125139;28;20306;-74
2022/04/13 07:05:36;;;;;;;12.07;5.40;;;;;;;8.33;44.61;94264.94;5124672;28;20322;-74
2022/04/13 07:08:04;;;;;;;9.20;5.47;;;;;;;8.49;43.81;94268.16;5124880;28;20023;-74
2022/04/13 07:10:34;;;;;;;13.10;5.40;;;;;;;8.55;43.69;94277.66;5125107;28;20027;-74
2022/04/13 07:13:00;;;;;;;14.82;6.13;;;;;;;8.55;43.54;94267.81;5124785;28;20023;-74
2022/04/13 07:15:26;;;;;;;15.50;6.00;;;;;;;8.62;43.95;94276.19;5124743;28;20099;-74
2022/04/13 07:17:52;;;;;;;9.30;5.57;;;;;;;8.66;44.34;94279.06;5124882;28;20031;-73
2022/04/13 07:20:17;;;;;;;14.82;5.95;;;;;;;8.77;44.56;94274.38;5124718;28;20099;-72
2022/04/13 07:22:51;;;;;;;15.95;6.30;;;;;;;8.94;44.03;94281.81;5125024;28;20016;-72
2022/04/13 07:25:17;;;;;;;14.45;5.72;;;;;;;9.05;42.10;94277.88;5124659;28;20209;-72
2022/04/13 07:27:43;;;;;;;11.85;5.82;;;;;;;9.07;42.07;94282.91;5124483;28;20025;-72
2022/04/13 07:30:10;;;;;;;13.43;5.90;;;;;;;9.10;41.49;94283.13;5124555;28;20042;-72
2022/04/13 07:32:35;;;;;;;14.98;5.75;;;;;;;9.22;40.94;94275.47;5124519;28;20026;-77
2022/04/13 07:35:02;;;;;;;13.95;5.97;;;;;;;9.24;41.42;94283.16;5124412;28;20090;-76
2022/04/13 07:37:28;;;;;;;19.13;5.15;;;;;;;9.33;41.80;94269.97;5124350;28;20084;-75
2022/04/13 07:39:53;;;;;;;11.55;5.15;;;;;;;9.29;40.42;94275.06;5124078;28;20314;-76
2022/04/13 07:42:23;;;;;;;15.65;5.57;;;;;;;9.39;40.42;94274.09;5123883;28;20049;-76
2022/04/13 07:44:48;;;;;;;17.88;5.85;;;;;;;9.51;40.00;94285.03;5124527;28;20036;-75
2022/04/13 07:47:20;;;;;;;12.23;5.13;;;;;;;9.56;38.72;94278.81;5124276;28;20050;-75
2022/04/13 07:49:47;;;;;;;16.95;5.18;;;;;;;9.52;39.30;94267.19;5123575;28;20026;-72
2022/04/13 07:52:13;;;;;;;10.65;4.57;;;;;;;9.47;38.10;94270.75;5124145;28;20195;-72
2022/04/13 07:54:38;;;;;;;14.57;5.13;;;;;;;9.47;36.94;94269.97;5105843;28;20225;-73
2022/04/13 07:57:04;;;;;;;11.13;5.43;;;;;;;9.48;37.46;94271.53;5105521;28;20015;-73
2022/04/13 07:59:29;;;;;;;15.27;5.57;;;;;;;9.56;38.22;94273.50;5124211;28;20019;-72
2022/04/13 08:01:55;;;;;;;15.43;5.35;;;;;;;9.68;38.56;94268.47;5124122;28;20099;-72
2022/04/13 08:04:21;;;;;;;11.10;5.45;;;;;;;9.81;37.56;94269.53;5123715;28;20011;-73
2022/04/13 08:06:47;;;;;;;17.98;6.40;;;;;;;9.87;38.77;94272.88;5124107;28;20094;-72
2022/04/13 08:09:13;;;;;;;14.00;5.80;;;;;;;9.95;38.85;94274.84;5123455;28;20038;-72
2022/04/13 08:11:38;;;;;;;14.15;6.07;;;;;;;10.09;39.03;94254.31;5123465;28;20240;-73
2022/04/13 08:14:04;;;;;;;11.15;4.90;;;;;;;10.20;36.62;94263.66;5123741;28;20023;-72
2022/04/13 08:16:29;;;;;;;14.63;5.38;;;;;;;10.33;34.97;94263.94;5123730;28;20023;-75
2022/04/13 08:18:55;;;;;;;11.32;4.25;;;;;;;10.45;34.35;94261.53;5123677;28;20285;-73
2022/04/13 08:21:20;;;;;;;16.63;4.70;;;;;;;10.52;33.47;94263.78;5123449;28;20068;-73
2022/04/13 08:23:46;;;;;;;11.90;4.63;;;;;;;10.67;33.45;94278.66;5123744;28;20221;-72
2022/04/13 08:26:11;;;;;;;12.30;5.28;;;;;;;10.68;31.71;94274.88;5123611;28;20019;-73
2022/04/13 08:28:37;;;;;;;9.30;4.57;;;;;;;10.66;32.18;94277.06;5123376;28;20045;-72
2022/04/13 08:31:04;;;;;;;10.90;4.00;;;;;;;10.67;30.05;94267.97;5123440;28;20020;-71
2022/04/13 08:33:33;;;;;;;9.30;6.00;;;;;;;10.69;31.94;94276.47;5123484;28;20019;-74
2022/04/13 08:35:59;;;;;;;11.73;3.83;;;;;;;10.68;29.51;94264.22;5123174;28;20027;-73
2022/04/13 08:38:25;;;;;;;8.77;4.03;;;;;;;10.77;28.65;94267.75;5123426;28;20043;-72
2022/04/13 08:40:59;;;;;;;6.10;3.13;;;;;;;10.82;26.58;94273.72;5123134;28;20045;-73
2022/04/13 08:43:44;;;;;;;10.63;3.20;;;;;;;10.97;27.29;94264.56;5123199;28;20024;-72
2022/04/13 08:46:21;;;;;;;7.32;2.92;;;;;;;11.10;28.57;94264.78;5123308;28;20038;-73
2022/04/13 08:48:55;;;;;;;7.40;4.45;;;;;;;11.21;29.90;94266.91;5123332;28;20034;-76
2022/04/13 08:51:23;;;;;;;13.73;4.97;;;;;;;11.22;29.15;94251.66;5123232;28;20031;-75
2022/04/13 08:53:57;;;;;;;9.80;4.50;;;;;;;11.15;29.99;94256.66;5123243;28;20337;-77
2022/04/13 08:56:23;;;;;;;19.52;5.45;;;;;;;11.28;30.51;94250.44;5123119;28;20250;-76
2022/04/13 08:59:03;;;;;;;13.32;4.05;;;;;;;11.29;28.29;94252.00;5123298;28;20092;-75
2022/04/13 09:02:14;;;;;;;7.90;4.93;;;;;;;11.33;28.58;94247.63;5129700;28;20244;-77
2022/04/13 09:04:43;;;;;;;11.13;4.15;;;;;;;11.28;28.32;94249.66;5130066;28;20031;-75
2022/04/13 09:07:13;;;;;;;11.20;4.10;;;;;;;11.39;26.91;94241.06;5130121;28;20046;-77
2022/04/13 09:09:46;;;;;;;11.38;3.90;;;;;;;11.48;27.67;94240.28;5129763;28;20198;-76
2022/04/13 09:12:14;;;;;;;16.92;3.85;;;;;;;11.58;27.31;94242.69;5129865;28;20023;-76
2022/04/13 09:14:40;;;;;;;7.95;3.67;;;;;;;11.69;26.44;94238.66;5129836;28;20225;-75
2022/04/13 09:17:06;;;;;;;11.82;4.10;;;;;;;11.73;26.30;94234.25;5129636;28;20209;-79
2022/04/13 09:19:33;;;;;;;8.98;4.10;;;;;;;11.83;27.07;94238.53;5129864;28;20019;-76
2022/04/13 09:21:59;;;;;;;18.95;4.03;;;;;;;11.93;27.34;94224.91;5129581;28;20313;-76
2022/04/13 09:24:27;;;;;;;8.43;3.85;;;;;;;12.00;26.11;94235.91;5129750;28;20023;-76
2022/04/13 09:26:53;;;;;;;6.95;3.53;;;;;;;11.95;25.44;94235.28;5129325;28;20024;-77
2022/04/13 09:29:18;;;;;;;11.95;3.92;;;;;;;11.94;26.60;94233.69;5129891;28;20047;-76
2022/04/13 09:31:45;;;;;;;8.27;3.67;;;;;;;11.94;24.78;94228.34;5129688;28;20015;-76
2022/04/13 09:34:10;;;;;;;7.18;3.28;;;;;;;11.88;24.29;94224.22;5129189;28;20036;-75
2022/04/13 09:40:05;;;;;;;8.25;2.90;;;;;;;12.05;22.13;94221.63;5120152;28;20067;-76
2022/04/13 09:42:31;;;;;;;6.78;3.47;;;;;;;12.09;22.59;94225.25;5127616;28;20043;-77
2022/04/13 09:45:00;;;;;;;5.82;3.30;;;;;;;12.04;22.50;94220.03;5109720;28;20020;-77
2022/04/13 09:47:31;;;;;;;10.63;3.65;;;;;;;12.06;24.20;94217.06;5127912;28;20248;-76
2022/04/13 09:49:56;;;;;;;7.40;3.22;;;;;;;12.27;25.01;94212.66;5127664;28;20015;-76
2022/04/13 09:52:37;;;;;;;17.00;5.45;;;;;;;12.43;23.67;94221.00;5127545;28;20019;-76
2022/04/13 09:55:07;;;;;;;7.80;3.92;;;;;;;12.54;23.68;94222.25;5127475;28;20026;-77
2022/04/13 09:57:32;;;;;;;8.00;3.55;;;;;;;12.64;23.64;94218.47;5127690;28;20083;-77
2022/04/13 10:00:05;;;;;;;6.60;3.15;;;;;;;12.77;21.50;94212.16;5127694;28;20027;-76
2022/04/13 10:02:34;;;;;;;;;;;;;;;12.90;22.43;94215.72;5128152;28;20023;-76
2022/04/13 10:05:00;;;;;;;6.13;3.45;;;;;;;12.76;22.70;94213.25;5128917;28;20000;-76
2022/04/13 10:07:25;;;;;;;12.07;4.32;;;;;;;12.71;22.98;94209.97;5129402;28;20015;-77
2022/04/13 10:09:51;;;;;;;8.48;3.75;;;;;;;12.60;23.39;94202.28;5129388;28;20364;-76
2022/04/13 10:12:16;;;;;;;6.80;2.95;;;;;;;12.71;22.91;94209.97;5126403;28;20221;-78
2022/04/13 10:14:43;;;;;;;5.70;2.90;;;;;;;12.67;20.93;94207.13;5126126;28;20064;-75
2022/04/13 10:17:20;;;;;;;5.55;2.00;;;;;;;12.81;20.71;94207.72;5126016;28;20314;-75
2022/04/13 10:19:57;;;;;;;4.05;2.20;;;;;;;12.97;20.03;94210.69;5126283;28;20094;-75
2022/04/13 10:22:23;;;;;;;4.32;2.30;;;;;;;13.11;19.73;94209.69;5125936;28;20241;-75
2022/04/13 10:24:48;;;;;;;7.43;2.92;;;;;;;13.03;19.80;94196.03;5126192;28;20048;-77
2022/04/13 10:27:16;;;;;;;8.48;3.55;;;;;;;12.97;20.45;94201.88;5125941;28;20210;-75
2022/04/13 10:29:44;;;;;;;5.57;2.55;;;;;;;12.91;20.90;94200.50;5125598;28;20023;-76
2022/04/13 10:32:22;;;;;;;7.70;2.65;;;;;;;12.99;21.45;94197.00;5125975;28;20019;-76
2022/04/13 10:34:50;;;;;;;6.65;2.70;;;;;;;13.00;21.33;94193.22;5125573;28;20053;-77
2022/04/13 10:37:18;;;;;;;7.45;2.97;;;;;;;13.02;20.64;94181.06;5125780;28;20015;-77
2022/04/13 10:39:45;;;;;;;6.30;2.83;;;;;;;13.13;22.63;94194.13;5125680;28;20026;-76
2022/04/13 10:42:13;;;;;;;6.97;2.63;;;;;;;13.19;22.50;94195.53;5125572;28;20035;-75
2022/04/13 10:44:58;;;;;;;7.07;3.05;;;;;;;13.24;23.28;94201.47;5125523;28;20318;-78
2022/04/13 10:47:58;;;;;;;6.45;2.80;;;;;;;13.35;22.56;94191.22;5125307;28;20367;-76
2022/04/13 10:50:49;;;;;;;6.93;2.45;;;;;;;13.50;21.56;94191.78;5125501;28;20340;-79
2022/04/13 10:53:34;;;;;;;5.32;2.42;;;;;;;13.57;20.53;94192.06;5125472;28;20098;-78
2022/04/13 10:56:02;;;;;;;3.83;2.03;;;;;;;13.56;20.28;94182.47;5125147;28;20114;-80
2022/04/13 10:58:37;;;;;;;4.50;1.80;;;;;;;13.64;20.97;94176.28;5125354;28;20145;-79
2022/04/13 11:01:05;;;;;;;10.60;2.50;;;;;;;13.73;21.37;94182.34;5125232;28;20195;-78
2022/04/13 11:03:36;;;;;;;15.30;2.72;;;;;;;13.80;21.89;94181.88;5125313;28;20041;-81
2022/04/13 11:06:06;;;;;;;3.35;2.15;;;;;;;13.83;22.51;94183.88;5125034;28;20023;-79
2022/04/13 11:09:00;;;;;;;7.38;2.63;;;;;;;13.84;22.74;94164.81;5124992;28;20043;-76
2022/04/13 11:11:28;;;;;;;7.20;2.30;;;;;;;13.89;23.27;94168.41;5125069;28;20022;-76
2022/04/13 11:13:54;;;;;;;7.00;2.67;;;;;;;13.98;22.50;94172.59;5124897;28;20023;-77
2022/04/13 11:16:29;;;;;;;5.15;2.47;;;;;;;14.00;22.27;94170.38;5125261;28;20265;-78
2022/04/13 11:19:01;;;;;;;6.63;2.88;;;;;;;13.99;23.48;94170.69;5124511;28;20073;-76
2022/04/13 11:21:28;;;;;;;10.67;2.90;;;;;;;13.97;22.74;94164.88;5124906;28;20055;-76
2022/04/13 11:23:54;;;;;;;5.07;2.85;;;;;;;13.93;23.87;94162.06;5124579;28;20269;-77
2022/04/13 11:26:34;;;;;;;6.55;2.88;;;;;;;14.03;23.94;94164.34;5124741;28;20318;-77
2022/04/13 11:29:09;;;;;;;6.15;2.72;;;;;;;14.31;22.46;94166.50;5124663;28;20027;-77
2022/04/13 11:32:00;;;;;;;11.18;2.65;;;;;;;14.37;22.66;94159.81;5124324;28;20027;-77
2022/04/13 11:34:45;;;;;;;7.88;2.92;;;;;;;14.49;22.12;94156.41;5124305;28;20044;-77
2022/04/13 11:37:20;;;;;;;3.08;1.85;;;;;;;14.53;22.19;94149.28;5124244;28;20030;-77
2022/04/13 11:39:51;;;;;;;11.38;2.40;;;;;;;14.82;21.79;94151.03;5124217;28;20023;-77